Time;durP1;ratioP1;P1;durP2;ratioP2;P2;SDS_P1;SDS_P2;PMS_P1;PMS_P2;Temp;Humidity;BMP_temperature;BMP_pressure;BME280_temperature;BME280_humidity;BME280_pressure;Samples;Min_cycle;Max_cycle;Signal;HPM_P1;HPM_P2
2022/01/08 00:00:55;;;;;;;26.06;11.16;;;;;;;;;;344831;156;865724;-61
2022/01/08 00:01:57;;;;;;;28.39;11.60;;;;;;;;;;342553;152;864727;-61
2022/01/08 00:02:59;;;;;;;26.28;10.34;;;;;;;;;;344669;155;863324;-61
2022/01/08 00:04:00;;;;;;;26.04;11.54;;;;;;;;;;338572;158;861757;-61
2022/01/08 00:05:02;;;;;;;29.44;12.19;;;;;;;;;;335711;155;865582;-61
2022/01/08 00:06:04;;;;;;;32.61;12.13;;;;;;;;;;344166;152;866745;-61
2022/01/08 00:07:05;;;;;;;30.07;11.00;;;;;;;;;;340351;156;858949;-62
2022/01/08 00:08:07;;;;;;;24.51;10.47;;;;;;;;;;344727;153;865289;-61
2022/01/08 00:09:08;;;;;;;25.24;10.96;;;;;;;;;;344270;152;866352;-61
2022/01/08 00:10:10;;;;;;;31.35;10.76;;;;;;;;;;344609;153;865613;-61
2022/01/08 00:11:17;;;;;;;23.31;10.55;;;;;;;;;;343420;156;857293;-61
2022/01/08 00:12:15;;;;;;;26.91;9.97;;;;;;;;;;343532;152;865437;-61
2022/01/08 00:13:17;;;;;;;25.61;10.52;;;;;;;;;;339693;154;859886;-61
2022/01/08 00:14:21;;;;;;;25.16;10.39;;;;;;;;;;339169;156;865498;-61
2022/01/08 00:15:22;;;;;;;22.22;10.16;;;;;;;;;;340686;154;868263;-61
2022/01/08 00:16:24;;;;;;;22.49;10.14;;;;;;;;;;341818;156;864976;-60
2022/01/08 00:17:25;;;;;;;24.86;11.41;;;;;;;;;;345042;154;865300;-61
2022/01/08 00:18:27;;;;;;;23.19;10.15;;;;;;;;;;343771;155;865326;-60
2022/01/08 00:19:29;;;;;;;26.09;9.84;;;;;;;;;;347462;151;857193;-59
2022/01/08 00:20:31;;;;;;;24.45;10.06;;;;;;;;;;346130;153;857119;-62
2022/01/08 00:21:32;;;;;;;19.24;9.08;;;;;;;;;;349150;154;857522;-61
2022/01/08 00:22:34;;;;;;;22.81;10.13;;;;;;;;;;347556;153;866376;-60
2022/01/08 00:23:36;;;;;;;25.31;9.58;;;;;;;;;;346535;153;857186;-60
2022/01/08 00:24:37;;;;;;;19.53;7.90;;;;;;;;;;344718;155;864816;-60
2022/01/08 00:25:39;;;;;;;15.81;7.10;;;;;;;;;;344662;155;865012;-61
2022/01/08 00:26:40;;;;;;;19.16;8.20;;;;;;;;;;341278;154;866633;-61
2022/01/08 00:27:42;;;;;;;25.44;8.71;;;;;;;;;;342220;154;866806;-60
2022/01/08 00:28:43;;;;;;;18.94;8.88;;;;;;;;;;343660;154;861941;-61
2022/01/08 00:29:45;;;;;;;16.64;8.58;;;;;;;;;;347870;151;868799;-61
2022/01/08 00:30:48;;;;;;;18.97;8.97;;;;;;;;;;341905;154;865091;-62
2022/01/08 00:31:50;;;;;;;16.61;8.86;;;;;;;;;;344847;153;860967;-61
2022/01/08 00:32:51;;;;;;;17.59;8.71;;;;;;;;;;346969;151;857150;-61
2022/01/08 00:33:53;;;;;;;20.09;7.78;;;;;;;;;;348046;153;865707;-61
2022/01/08 00:34:55;;;;;;;18.00;8.36;;;;;;;;;;348626;151;866993;-61
2022/01/08 00:35:57;;;;;;;16.84;8.20;;;;;;;;;;344598;154;857265;-60
2022/01/08 00:36:58;;;;;;;15.97;7.44;;;;;;;;;;348066;150;866040;-60
2022/01/08 00:38:00;;;;;;;24.44;8.99;;;;;;;;;;348440;153;864881;-62
2022/01/08 00:39:02;;;;;;;17.16;7.87;;;;;;;;;;347359;154;862298;-62
2022/01/08 00:40:04;;;;;;;15.57;7.58;;;;;;;;;;348544;151;857049;-62
2022/01/08 00:41:07;;;;;;;14.28;7.09;;;;;;;;;;348428;151;857690;-61
2022/01/08 00:42:08;;;;;;;17.82;7.43;;;;;;;;;;345656;151;858574;-61
2022/01/08 00:43:10;;;;;;;15.50;7.15;;;;;;;;;;347744;154;864911;-61
2022/01/08 00:44:11;;;;;;;18.79;7.52;;;;;;;;;;346273;150;864912;-61
2022/01/08 00:45:13;;;;;;;13.90;7.23;;;;;;;;;;346218;154;866745;-60
2022/01/08 00:46:15;;;;;;;18.27;8.01;;;;;;;;;;344595;154;858961;-61
2022/01/08 00:47:17;;;;;;;16.74;7.16;;;;;;;;;;343460;151;857400;-61
2022/01/08 00:48:18;;;;;;;15.16;8.30;;;;;;;;;;345149;153;866798;-61
2022/01/08 00:49:20;;;;;;;20.51;8.25;;;;;;;;;;345957;155;865865;-61
2022/01/08 00:50:22;;;;;;;13.09;7.37;;;;;;;;;;344560;155;860766;-60
2022/01/08 00:51:24;;;;;;;15.09;7.92;;;;;;;;;;345745;153;857581;-61
2022/01/08 00:52:25;;;;;;;16.01;8.04;;;;;;;;;;337415;157;865118;-61
2022/01/08 00:53:27;;;;;;;13.22;7.43;;;;;;;;;;347864;154;863384;-61
2022/01/08 00:54:28;;;;;;;14.44;7.58;;;;;;;;;;341277;153;864995;-61
2022/01/08 00:55:30;;;;;;;14.60;7.74;;;;;;;;;;344526;154;865767;-61
2022/01/08 00:56:32;;;;;;;16.13;7.97;;;;;;;;;;339552;157;866193;-61
2022/01/08 00:57:33;;;;;;;13.43;7.16;;;;;;;;;;339130;157;856892;-61
2022/01/08 00:58:35;;;;;;;14.39;7.55;;;;;;;;;;342151;156;864903;-61
2022/01/08 00:59:36;;;;;;;17.00;7.24;;;;;;;;;;343063;156;865100;-61
2022/01/08 01:00:38;;;;;;;16.92;7.69;;;;;;;;;;341179;156;864919;-61
2022/01/08 01:01:40;;;;;;;14.76;7.51;;;;;;;;;;341662;155;864962;-61
2022/01/08 01:02:41;;;;;;;14.47;6.97;;;;;;;;;;348608;153;864879;-61
2022/01/08 01:03:43;;;;;;;15.12;7.61;;;;;;;;;;347320;154;866699;-61
2022/01/08 01:04:45;;;;;;;17.93;8.85;;;;;;;;;;347031;151;865991;-61
2022/01/08 01:05:46;;;;;;;16.16;8.15;;;;;;;;;;347532;153;868577;-61
2022/01/08 01:06:48;;;;;;;17.81;8.61;;;;;;;;;;346469;154;865156;-61
2022/01/08 01:07:50;;;;;;;18.69;9.23;;;;;;;;;;348230;151;857393;-60
2022/01/08 01:08:51;;;;;;;38.86;14.87;;;;;;;;;;347411;150;866568;-62
2022/01/08 01:09:53;;;;;;;21.04;9.64;;;;;;;;;;349912;154;862030;-60
2022/01/08 01:10:54;;;;;;;22.43;9.32;;;;;;;;;;349860;154;865630;-60
2022/01/08 01:11:57;;;;;;;44.79;15.63;;;;;;;;;;348117;154;864795;-60
2022/01/08 01:12:59;;;;;;;40.11;14.28;;;;;;;;;;347846;153;864790;-60
2022/01/08 01:14:01;;;;;;;24.94;11.19;;;;;;;;;;349379;154;857169;-60
2022/01/08 01:15:03;;;;;;;28.31;12.39;;;;;;;;;;348805;150;864725;-60
2022/01/08 01:16:04;;;;;;;25.79;10.47;;;;;;;;;;350097;152;858684;-60
2022/01/08 01:17:06;;;;;;;24.40;10.23;;;;;;;;;;356085;150;858220;-60
2022/01/08 01:18:09;;;;;;;27.06;10.82;;;;;;;;;;357019;150;857114;-60
2022/01/08 01:19:10;;;;;;;30.97;11.68;;;;;;;;;;356005;147;864803;-60
2022/01/08 01:20:13;;;;;;;28.35;11.53;;;;;;;;;;357323;149;864985;-60
2022/01/08 01:21:15;;;;;;;30.47;11.85;;;;;;;;;;357337;148;857333;-60
2022/01/08 01:22:20;;;;;;;28.88;11.19;;;;;;;;;;357091;148;865266;-61
2022/01/08 01:23:28;;;;;;;26.84;10.96;;;;;;;;;;356769;149;865069;-61
2022/01/08 01:24:25;;;;;;;26.28;10.58;;;;;;;;;;354595;147;857813;-60
2022/01/08 01:25:36;;;;;;;25.28;9.67;;;;;;;;;;355380;149;865978;-60
2022/01/08 01:26:31;;;;;;;23.27;9.40;;;;;;;;;;356330;147;859534;-60
2022/01/08 01:27:56;;;;;;;23.21;10.01;;;;;;;;;;354404;147;866361;-60
2022/01/08 01:29:27;;;;;;;23.02;10.12;;;;;;;;;;355516;147;865372;-60
2022/01/08 01:29:59;;;;;;;23.67;10.31;;;;;;;;;;351541;148;858541;-60
2022/01/08 01:43:05;;;;;;;13.49;6.58;;;;;;;;;;357678;150;858563;-60
2022/01/08 01:47:00;;;;;;;16.00;7.26;;;;;;;;;;352308;149;856951;-60
2022/01/08 01:47:19;;;;;;;16.08;7.12;;;;;;;;;;357023;150;864979;-60
2022/01/08 01:48:21;;;;;;;28.46;11.72;;;;;;;;;;356043;150;857553;-60
2022/01/08 01:49:22;;;;;;;41.89;14.85;;;;;;;;;;354539;150;864605;-60
2022/01/08 01:50:24;;;;;;;36.58;14.26;;;;;;;;;;357853;150;865079;-60
2022/01/08 01:51:26;;;;;;;30.24;12.16;;;;;;;;;;357707;147;865082;-60
2022/01/08 01:52:28;;;;;;;22.80;9.94;;;;;;;;;;359432;147;864989;-60
2022/01/08 01:53:29;;;;;;;25.70;10.11;;;;;;;;;;357479;148;863146;-60
2022/01/08 01:54:31;;;;;;;21.56;9.49;;;;;;;;;;357959;149;857250;-60
2022/01/08 01:55:33;;;;;;;21.67;10.29;;;;;;;;;;358106;148;864773;-60
2022/01/08 01:56:35;;;;;;;28.47;10.84;;;;;;;;;;357026;150;857274;-60
2022/01/08 01:57:37;;;;;;;28.37;11.58;;;;;;;;;;358311;150;858630;-60
2022/01/08 01:58:39;;;;;;;27.13;10.67;;;;;;;;;;358679;148;858791;-60
2022/01/08 01:59:40;;;;;;;26.39;10.78;;;;;;;;;;358522;150;866085;-60
2022/01/08 02:00:45;;;;;;;25.07;10.61;;;;;;;;;;357937;147;863248;-60
2022/01/08 02:01:47;;;;;;;25.68;10.98;;;;;;;;;;357195;149;857724;-61
2022/01/08 02:02:49;;;;;;;29.54;11.75;;;;;;;;;;355127;150;857241;-59
2022/01/08 02:03:50;;;;;;;31.21;13.46;;;;;;;;;;351990;151;864912;-60
2022/01/08 02:04:52;;;;;;;27.87;12.10;;;;;;;;;;356375;149;866765;-60
2022/01/08 02:05:53;;;;;;;29.16;11.12;;;;;;;;;;358557;148;860803;-60
2022/01/08 02:06:55;;;;;;;25.48;11.73;;;;;;;;;;357552;147;861672;-60
2022/01/08 02:07:57;;;;;;;26.42;12.44;;;;;;;;;;358169;147;866848;-60
2022/01/08 02:08:58;;;;;;;30.37;11.95;;;;;;;;;;356986;150;864973;-60
2022/01/08 02:10:00;;;;;;;24.06;11.11;;;;;;;;;;354780;150;864905;-59
2022/01/08 02:11:01;;;;;;;24.66;10.56;;;;;;;;;;356745;147;859439;-59
2022/01/08 02:12:04;;;;;;;24.28;10.78;;;;;;;;;;356953;147;862591;-60
2022/01/08 02:13:05;;;;;;;24.06;10.11;;;;;;;;;;358714;150;864855;-59
2022/01/08 02:14:07;;;;;;;22.28;9.75;;;;;;;;;;356515;150;857649;-60
2022/01/08 02:15:09;;;;;;;22.63;10.15;;;;;;;;;;356872;150;865965;-60
2022/01/08 02:16:17;;;;;;;24.71;11.21;;;;;;;;;;358496;147;864729;-61
2022/01/08 02:17:14;;;;;;;73.25;24.34;;;;;;;;;;347073;153;857439;-61
2022/01/08 02:18:16;;;;;;;52.73;18.54;;;;;;;;;;358473;148;857671;-60
2022/01/08 02:19:18;;;;;;;34.10;12.94;;;;;;;;;;357409;149;865082;-61
2022/01/08 02:20:19;;;;;;;19.63;8.89;;;;;;;;;;356655;150;864958;-60
2022/01/08 02:21:21;;;;;;;23.02;8.79;;;;;;;;;;355085;148;864604;-60
2022/01/08 02:22:23;;;;;;;28.30;11.63;;;;;;;;;;356741;149;866083;-61
2022/01/08 02:23:24;;;;;;;24.68;10.19;;;;;;;;;;358125;149;856554;-61
2022/01/08 02:24:26;;;;;;;27.71;11.44;;;;;;;;;;359323;149;864883;-60
2022/01/08 02:25:27;;;;;;;30.71;11.43;;;;;;;;;;357553;150;864942;-60
2022/01/08 02:26:30;;;;;;;40.46;14.47;;;;;;;;;;357281;149;863764;-60
2022/01/08 02:27:32;;;;;;;27.05;11.91;;;;;;;;;;357052;150;864712;-61
2022/01/08 02:28:34;;;;;;;28.10;11.12;;;;;;;;;;357755;149;864854;-60
2022/01/08 02:29:36;;;;;;;25.55;11.30;;;;;;;;;;356779;149;865047;-60
2022/01/08 02:30:38;;;;;;;22.87;9.78;;;;;;;;;;355401;150;860404;-60
2022/01/08 02:31:40;;;;;;;38.42;14.73;;;;;;;;;;353783;148;865773;-60
2022/01/08 02:32:42;;;;;;;27.04;9.89;;;;;;;;;;358044;147;864856;-60
2022/01/08 02:33:43;;;;;;;24.95;10.58;;;;;;;;;;356584;149;858127;-60
2022/01/08 02:34:46;;;;;;;27.78;10.61;;;;;;;;;;358666;150;857409;-60
2022/01/08 02:35:48;;;;;;;22.61;9.67;;;;;;;;;;355609;149;865833;-61
2022/01/08 02:36:49;;;;;;;20.26;9.73;;;;;;;;;;356855;150;864959;-60
2022/01/08 02:37:51;;;;;;;18.85;8.59;;;;;;;;;;359397;147;866071;-61
2022/01/08 02:38:53;;;;;;;21.68;9.02;;;;;;;;;;357132;150;865792;-61
2022/01/08 02:39:54;;;;;;;19.24;8.24;;;;;;;;;;358576;149;857406;-60
2022/01/08 02:41:03;;;;;;;19.79;9.68;;;;;;;;;;354997;147;867186;-61
2022/01/08 02:42:00;;;;;;;18.19;9.11;;;;;;;;;;356956;150;864942;-60
2022/01/08 02:43:04;;;;;;;22.79;9.69;;;;;;;;;;358855;147;865582;-61
2022/01/08 02:44:07;;;;;;;17.91;9.28;;;;;;;;;;358386;149;865092;-60
2022/01/08 02:45:09;;;;;;;16.66;8.96;;;;;;;;;;355306;150;857385;-60
2022/01/08 02:46:12;;;;;;;19.39;8.80;;;;;;;;;;358324;150;860271;-60
2022/01/08 02:47:14;;;;;;;18.93;8.25;;;;;;;;;;356964;149;858725;-60
2022/01/08 02:48:15;;;;;;;16.22;8.49;;;;;;;;;;358567;150;857537;-60
2022/01/08 02:49:17;;;;;;;12.59;7.77;;;;;;;;;;358021;148;857308;-61
2022/01/08 02:50:19;;;;;;;18.09;8.39;;;;;;;;;;357543;147;866904;-60
2022/01/08 02:51:20;;;;;;;16.26;7.77;;;;;;;;;;356844;149;857325;-60
2022/01/08 02:52:22;;;;;;;18.96;8.21;;;;;;;;;;358437;150;865356;-60
2022/01/08 02:53:24;;;;;;;21.02;9.15;;;;;;;;;;358586;147;865224;-60
2022/01/08 02:54:25;;;;;;;18.08;8.77;;;;;;;;;;357235;149;860039;-60
2022/01/08 02:55:27;;;;;;;16.89;8.69;;;;;;;;;;356593;147;865088;-60
2022/01/08 02:56:29;;;;;;;16.38;8.60;;;;;;;;;;356918;148;859415;-60
2022/01/08 02:57:31;;;;;;;18.41;8.46;;;;;;;;;;356920;149;857459;-60
2022/01/08 02:58:32;;;;;;;19.51;9.17;;;;;;;;;;357015;150;864944;-60
2022/01/08 02:59:34;;;;;;;17.24;8.27;;;;;;;;;;354282;150;866709;-60
2022/01/08 03:00:36;;;;;;;18.54;8.76;;;;;;;;;;356550;147;863641;-60
2022/01/08 03:01:37;;;;;;;18.44;9.15;;;;;;;;;;357619;150;865985;-60
2022/01/08 03:02:42;;;;;;;18.60;8.90;;;;;;;;;;356946;148;864990;-60
2022/01/08 03:03:44;;;;;;;23.80;11.07;;;;;;;;;;356379;148;864391;-60
2022/01/08 03:04:47;;;;;;;26.74;12.23;;;;;;;;;;357056;149;857208;-60
2022/01/08 03:05:49;;;;;;;25.28;9.88;;;;;;;;;;356464;147;865401;-61
2022/01/08 03:06:51;;;;;;;22.06;10.21;;;;;;;;;;357864;150;857124;-61
2022/01/08 03:07:52;;;;;;;19.69;8.90;;;;;;;;;;357203;149;865157;-60
2022/01/08 03:08:54;;;;;;;19.11;8.51;;;;;;;;;;358121;150;857234;-60
2022/01/08 03:09:58;;;;;;;29.51;10.21;;;;;;;;;;357418;149;865000;-61
2022/01/08 03:11:00;;;;;;;14.47;7.02;;;;;;;;;;356666;147;864685;-61
2022/01/08 03:12:01;;;;;;;16.16;8.03;;;;;;;;;;357241;149;866718;-60
2022/01/08 03:13:04;;;;;;;18.40;9.06;;;;;;;;;;355102;149;864104;-60
2022/01/08 03:14:06;;;;;;;19.71;9.31;;;;;;;;;;356580;147;865042;-61
2022/01/08 03:15:16;;;;;;;19.61;8.64;;;;;;;;;;358071;148;859501;-61
2022/01/08 03:16:18;;;;;;;21.19;7.58;;;;;;;;;;354333;147;865120;-60
2022/01/08 03:17:20;;;;;;;15.91;7.57;;;;;;;;;;358542;148;859518;-59
2022/01/08 03:18:22;;;;;;;15.87;7.50;;;;;;;;;;357927;147;865136;-60
2022/01/08 03:19:24;;;;;;;19.15;8.89;;;;;;;;;;357068;149;866429;-60
2022/01/08 03:20:26;;;;;;;15.68;7.74;;;;;;;;;;356602;150;864063;-60
2022/01/08 03:21:35;;;;;;;14.77;7.43;;;;;;;;;;355328;147;856703;-60
2022/01/08 03:22:32;;;;;;;16.12;7.49;;;;;;;;;;355819;150;857239;-60
2022/01/08 03:23:43;;;;;;;16.33;7.61;;;;;;;;;;354399;147;856589;-60
2022/01/08 03:24:40;;;;;;;28.41;10.81;;;;;;;;;;357774;147;856224;-60
2022/01/08 03:25:42;;;;;;;18.07;8.31;;;;;;;;;;357337;149;857165;-60
2022/01/08 03:26:44;;;;;;;22.91;9.51;;;;;;;;;;354189;149;865793;-61
2022/01/08 03:27:48;;;;;;;19.78;9.17;;;;;;;;;;355005;148;858369;-60
2022/01/08 03:28:49;;;;;;;27.12;10.50;;;;;;;;;;357078;147;864983;-61
2022/01/08 03:29:50;;;;;;;26.43;9.83;;;;;;;;;;356707;149;858108;-61
2022/01/08 03:30:52;;;;;;;18.49;8.87;;;;;;;;;;356091;150;864634;-61
2022/01/08 03:31:54;;;;;;;19.33;8.13;;;;;;;;;;359125;147;865070;-61
2022/01/08 03:32:55;;;;;;;20.19;8.43;;;;;;;;;;356960;149;856097;-62
2022/01/08 03:33:57;;;;;;;21.18;8.96;;;;;;;;;;355001;149;859473;-61
2022/01/08 03:34:58;;;;;;;25.04;9.34;;;;;;;;;;358833;147;865337;-61
2022/01/08 03:36:00;;;;;;;49.19;14.54;;;;;;;1.17;95.54;151557.22;357395;147;860553;-61
2022/01/08 03:37:02;;;;;;;87.16;20.84;;;;;;;;;;356147;150;864856;-60
2022/01/08 03:38:03;;;;;;;94.94;23.03;;;;;;;;;;358787;150;859068;-61
2022/01/08 03:39:05;;;;;;;50.12;14.53;;;;;;;;;;358861;147;864786;-61
2022/01/08 03:40:07;;;;;;;60.03;15.61;;;;;;;;;;356468;147;857327;-61
2022/01/08 03:41:09;;;;;;;87.27;22.37;;;;;;;;;;354746;150;857179;-61
2022/01/08 03:42:11;;;;;;;82.55;21.09;;;;;;;;;;358940;147;857147;-61
2022/01/08 03:43:13;;;;;;;107.66;24.46;;;;;;;;;;357721;147;858240;-61
2022/01/08 03:44:14;;;;;;;89.99;24.61;;;;;;;;;;357947;147;865395;-60
2022/01/08 03:45:16;;;;;;;79.24;20.97;;;;;;;;;;357032;147;866097;-60
2022/01/08 03:46:20;;;;;;;55.99;15.38;;;;;;;;;;356999;147;865044;-60
2022/01/08 03:49:11;;;;;;;35.63;11.77;;;;;;;;;;356877;150;856862;-59
2022/01/08 03:49:51;;;;;;;45.35;12.23;;;;;;;;;;354607;149;857299;-60
2022/01/08 03:50:53;;;;;;;51.23;15.61;;;;;;;;;;357204;148;858516;-60
2022/01/08 03:51:55;;;;;;;44.09;14.15;;;;;;;;;;353335;150;857332;-60
2022/01/08 03:52:57;;;;;;;56.38;17.61;;;;;;;;;;357561;147;860696;-60
2022/01/08 03:53:58;;;;;;;59.22;17.63;;;;;;;;;;359085;147;859912;-60
2022/01/08 03:55:00;;;;;;;57.68;17.18;;;;;;;;;;357391;148;865827;-60
2022/01/08 03:56:02;;;;;;;63.26;18.92;;;;;;;;;;356135;147;858254;-61
2022/01/08 03:57:03;;;;;;;60.70;16.58;;;;;;;;;;356208;147;864773;-60
2022/01/08 03:58:05;;;;;;;46.70;15.89;;;;;;;;;;357491;150;864945;-60
2022/01/08 03:59:07;;;;;;;42.82;14.01;;;;;;;;;;349458;152;860144;-61
2022/01/08 04:00:09;;;;;;;36.47;12.55;;;;;;;;;;357661;147;865963;-60
2022/01/08 04:01:10;;;;;;;47.09;14.55;;;;;;;;;;357250;147;858885;-61
2022/01/08 04:02:12;;;;;;;44.84;13.81;;;;;;;;;;355829;149;858609;-59
2022/01/08 04:03:18;;;;;;;37.94;13.81;;;;;;;;;;354700;147;862011;-60
2022/01/08 04:04:17;;;;;;;33.93;12.46;;;;;;;;;;356920;149;858087;-60
2022/01/08 04:05:19;;;;;;;43.19;12.79;;;;;;;;;;358015;147;857295;-60
2022/01/08 04:06:21;;;;;;;25.74;10.47;;;;;;;;;;357418;147;865809;-60
2022/01/08 04:07:22;;;;;;;36.76;12.72;;;;;;;;;;357221;147;857484;-60
2022/01/08 04:08:24;;;;;;;40.49;12.96;;;;;;;;;;357567;150;865510;-60
2022/01/08 04:09:25;;;;;;;37.85;12.23;;;;;;;;;;355628;149;864210;-61
2022/01/08 04:10:28;;;;;;;36.47;13.49;;;;;;;;;;356305;148;857826;-60
2022/01/08 04:11:29;;;;;;;31.46;12.49;;;;;;;;;;356325;149;857351;-60
2022/01/08 04:12:38;;;;;;;28.46;10.66;;;;;;;;;;357682;147;866643;-61
2022/01/08 04:13:38;;;;;;;28.81;10.87;;;;;;;;;;357679;147;858577;-60
2022/01/08 04:14:52;;;;;;;35.38;11.56;;;;;;;;;;357015;147;863587;-60
2022/01/08 04:15:45;;;;;;;28.77;10.11;;;;;;;;;;354417;149;857193;-61
2022/01/08 04:16:49;;;;;;;25.92;9.74;;;;;;;;;;355832;150;858698;-60
2022/01/08 04:17:49;;;;;;;29.81;9.96;;;;;;;;;;356345;148;865524;-61
2022/01/08 04:18:50;;;;;;;23.51;9.98;;;;;;;;;;357895;148;857289;-61
2022/01/08 04:19:52;;;;;;;22.51;9.79;;;;;;;;;;355844;147;859035;-61
2022/01/08 04:22:14;;;;;;;21.09;8.66;;;;;;;;;;356314;147;857407;-61
2022/01/08 04:23:20;;;;;;;14.41;7.92;;;;;;;;;;356496;147;857784;-61
2022/01/08 04:24:19;;;;;;;15.42;8.26;;;;;;;;;;356559;148;857552;-61
2022/01/08 04:25:21;;;;;;;17.11;8.96;;;;;;;;;;357543;149;859429;-61
2022/01/08 04:26:25;;;;;;;28.14;11.20;;;;;;;;;;357929;147;857469;-61
2022/01/08 04:27:26;;;;;;;26.13;13.22;;;;;;;;;;357248;148;856699;-61
2022/01/08 04:28:28;;;;;;;21.99;9.96;;;;;;;;;;356933;147;857362;-61
2022/01/08 04:29:29;;;;;;;18.68;7.86;;;;;;;;;;356772;148;864811;-61
2022/01/08 04:30:31;;;;;;;16.08;7.67;;;;;;;;;;358595;147;865842;-60
2022/01/08 04:31:33;;;;;;;16.63;7.34;;;;;;;;;;358233;147;857516;-61
2022/01/08 04:32:34;;;;;;;18.04;7.51;;;;;;;;;;358475;147;865047;-61
2022/01/08 04:33:36;;;;;;;19.47;8.21;;;;;;;;;;357932;147;863295;-60
2022/01/08 04:34:38;;;;;;;20.36;8.02;;;;;;;;;;358206;147;864626;-61
2022/01/08 04:35:39;;;;;;;17.66;8.08;;;;;;;;;;356602;149;866029;-61
2022/01/08 04:36:42;;;;;;;15.75;7.42;;;;;;;;;;357733;147;858564;-61
2022/01/08 04:37:43;;;;;;;13.52;7.05;;;;;;;;;;357187;150;857224;-60
2022/01/08 04:38:45;;;;;;;17.71;7.39;;;;;;;;;;356913;148;858352;-60
2022/01/08 04:39:46;;;;;;;16.25;7.16;;;;;;;;;;358968;150;864988;-61
2022/01/08 04:40:48;;;;;;;14.41;6.71;;;;;;;;;;358903;147;857126;-61
2022/01/08 04:41:49;;;;;;;15.64;6.99;;;;;;;;;;355535;150;864913;-61
2022/01/08 04:42:51;;;;;;;12.65;6.88;;;;;;;;;;357930;149;866726;-61
2022/01/08 04:43:52;;;;;;;16.50;7.11;;;;;;;;;;353364;147;867258;-61
2022/01/08 04:44:55;;;;;;;17.35;7.77;;;;;;;;;;352897;150;860126;-61
2022/01/08 04:45:56;;;;;;;16.33;7.55;;;;;;;;;;356491;147;858911;-61
2022/01/08 04:46:58;;;;;;;16.07;7.26;;;;;;;;;;359553;147;859869;-61
2022/01/08 04:48:00;;;;;;;11.42;6.55;;;;;;;;;;354937;149;864947;-61
2022/01/08 04:49:01;;;;;;;17.51;7.20;;;;;;;;;;358020;147;865128;-61
2022/01/08 04:50:03;;;;;;;17.87;7.28;;;;;;;;;;354919;149;859618;-60
2022/01/08 04:51:05;;;;;;;15.88;7.89;;;;;;;;;;355355;147;865911;-60
2022/01/08 04:52:06;;;;;;;17.59;7.56;;;;;;;;;;355832;147;857476;-60
2022/01/08 04:53:08;;;;;;;17.34;7.56;;;;;;;;;;356696;149;865745;-59
2022/01/08 04:54:10;;;;;;;16.86;8.12;;;;;;;;;;356524;149;864966;-60
2022/01/08 04:55:11;;;;;;;19.92;8.32;;;;;;;;;;356164;148;857194;-60
2022/01/08 04:56:13;;;;;;;23.63;10.24;;;;;;;;;;357028;147;862452;-60
2022/01/08 04:57:15;;;;;;;35.24;13.53;;;;;;;;;;358027;149;857210;-60
2022/01/08 04:58:17;;;;;;;37.09;14.04;;;;;;;;;;356157;149;865016;-60
2022/01/08 04:59:18;;;;;;;27.39;11.81;;;;;;;;;;356193;147;866769;-61
2022/01/08 05:00:22;;;;;;;24.76;10.84;;;;;;;;;;356748;148;857230;-60
2022/01/08 05:01:23;;;;;;;26.23;11.45;;;;;;;;;;357458;147;857214;-60
2022/01/08 05:02:25;;;;;;;20.17;10.09;;;;;;;;;;356883;147;857404;-60
2022/01/08 05:03:27;;;;;;;23.31;10.06;;;;;;;;;;358734;147;858328;-60
2022/01/08 05:04:28;;;;;;;14.90;7.70;;;;;;;;;;356429;149;867038;-60
2022/01/08 05:05:30;;;;;;;22.96;10.93;;;;;;;;;;351629;150;866659;-60
2022/01/08 05:06:33;;;;;;;24.80;10.95;;;;;;;;;;359199;147;857828;-60
2022/01/08 05:07:35;;;;;;;27.05;11.75;;;;;;;;;;358221;147;856660;-61
2022/01/08 05:08:36;;;;;;;24.24;11.64;;;;;;;;;;356458;147;857101;-61
2022/01/08 05:09:38;;;;;;;21.82;10.19;;;;;;;;;;357805;147;865301;-60
2022/01/08 05:10:39;;;;;;;22.09;11.15;;;;;;;;;;358174;147;864859;-61
2022/01/08 05:11:41;;;;;;;23.81;10.36;;;;;;;;;;356942;147;865225;-61
2022/01/08 05:12:43;;;;;;;25.18;10.62;;;;;;;;;;357347;148;860130;-61
2022/01/08 05:13:45;;;;;;;25.47;10.97;;;;;;;;;;356948;147;865260;-61
2022/01/08 05:14:47;;;;;;;29.27;11.22;;;;;;;;;;355232;149;864866;-61
2022/01/08 05:15:49;;;;;;;22.33;11.15;;;;;;;;;;353264;150;857337;-61
2022/01/08 05:16:57;;;;;;;28.41;12.21;;;;;;;;;;357687;147;857203;-62
2022/01/08 05:17:55;;;;;;;24.47;11.46;;;;;;;;;;355859;147;857452;-61
2022/01/08 05:18:57;;;;;;;24.19;11.27;;;;;;;;;;357146;150;865476;-61
2022/01/08 05:20:02;;;;;;;25.70;12.05;;;;;;;;;;355056;147;868053;-61
2022/01/08 05:22:29;;;;;;;24.02;10.31;;;;;;;;;;355080;149;857395;-59
2022/01/08 05:23:29;;;;;;;22.36;10.44;;;;;;;;;;357317;147;865434;-62
2022/01/08 05:24:30;;;;;;;21.40;11.11;;;;;;;;;;357489;149;859931;-60
2022/01/08 05:25:33;;;;;;;20.21;10.58;;;;;;;;;;355098;150;864758;-59
2022/01/08 05:26:34;;;;;;;22.47;11.75;;;;;;;;;;355612;150;863756;-60
2022/01/08 05:27:36;;;;;;;21.79;10.99;;;;;;;;;;356002;147;858565;-60
2022/01/08 05:28:38;;;;;;;20.82;11.36;;;;;;;;;;356756;147;864789;-60
2022/01/08 05:29:39;;;;;;;23.86;11.56;;;;;;;;;;355948;147;866470;-59
2022/01/08 05:30:41;;;;;;;21.84;10.89;;;;;;;;;;357155;147;866368;-60
2022/01/08 05:31:42;;;;;;;24.95;10.76;;;;;;;;;;358143;149;866452;-60
2022/01/08 05:32:44;;;;;;;24.22;11.09;;;;;;;;;;356061;149;865086;-60
2022/01/08 05:33:45;;;;;;;26.86;12.19;;;;;;;;;;355679;148;864811;-61
2022/01/08 05:34:48;;;;;;;24.94;12.16;;;;;;;;;;356686;148;866816;-61
2022/01/08 05:35:49;;;;;;;25.15;11.69;;;;;;;;;;356634;147;863187;-60
2022/01/08 05:36:51;;;;;;;23.05;11.81;;;;;;;;;;355821;147;857209;-60
2022/01/08 05:37:53;;;;;;;23.98;11.60;;;;;;;;;;357499;147;866607;-60
2022/01/08 05:38:54;;;;;;;26.49;11.65;;;;;;;;;;357942;149;866575;-60
2022/01/08 05:39:56;;;;;;;23.82;11.17;;;;;;;;;;356562;147;857274;-61
2022/01/08 05:40:58;;;;;;;20.19;11.03;;;;;;;;;;356170;148;859349;-60
2022/01/08 05:42:00;;;;;;;20.23;10.89;;;;;;;;;;356786;149;858035;-60
2022/01/08 05:43:01;;;;;;;22.57;11.09;;;;;;;;;;356544;149;857354;-60
2022/01/08 05:44:03;;;;;;;21.55;11.32;;;;;;;;;;354640;147;864372;-61
2022/01/08 05:45:05;;;;;;;19.98;10.25;;;;;;;;;;357434;147;857975;-60
2022/01/08 05:46:07;;;;;;;25.97;11.66;;;;;;;;;;356431;149;858030;-60
2022/01/08 05:47:08;;;;;;;23.26;10.94;;;;;;;;;;355298;148;859001;-61
2022/01/08 05:48:10;;;;;;;31.06;13.66;;;;;;;;;;357698;147;865659;-60
2022/01/08 05:49:12;;;;;;;32.05;12.36;;;;;;;;;;357660;147;865959;-61
2022/01/08 05:50:14;;;;;;;20.90;10.85;;;;;;;;;;357510;147;865086;-60
2022/01/08 05:51:16;;;;;;;27.48;13.85;;;;;;;;;;357583;147;865644;-60
2022/01/08 05:52:17;;;;;;;29.30;13.38;;;;;;;;;;356966;149;864945;-61
2022/01/08 05:53:19;;;;;;;26.86;12.89;;;;;;;;;;358426;147;865050;-60
2022/01/08 05:54:21;;;;;;;23.82;11.63;;;;;;;;;;354541;150;863648;-60
2022/01/08 05:55:22;;;;;;;26.53;11.70;;;;;;;;;;357545;148;859305;-60
2022/01/08 05:56:26;;;;;;;23.43;11.06;;;;;;;;;;357659;149;865682;-61
2022/01/08 05:57:27;;;;;;;26.33;11.53;;;;;;;;;;359442;147;864767;-60
2022/01/08 05:58:29;;;;;;;26.84;12.65;;;;;;;;;;357953;149;866441;-60
2022/01/08 05:59:30;;;;;;;25.67;12.17;;;;;;;;;;357506;147;865469;-60
2022/01/08 06:00:32;;;;;;;26.27;12.29;;;;;;;;;;355500;150;864012;-61
2022/01/08 06:01:34;;;;;;;22.94;11.49;;;;;;;;;;357548;150;867248;-61
2022/01/08 06:02:36;;;;;;;26.05;12.74;;;;;;;;;;357325;148;863489;-60
2022/01/08 06:03:38;;;;;;;24.43;11.14;;;;;;;;;;357750;148;858896;-60
2022/01/08 06:04:39;;;;;;;21.25;11.35;;;;;;;;;;354892;149;858185;-61
2022/01/08 06:05:41;;;;;;;24.45;11.31;;;;;;;;;;356554;147;858664;-60
2022/01/08 06:06:44;;;;;;;26.70;11.54;;;;;;;;;;358109;149;864890;-60
2022/01/08 06:07:45;;;;;;;22.64;11.94;;;;;;;;;;356062;147;865244;-60
2022/01/08 06:08:47;;;;;;;20.83;10.99;;;;;;;;;;354990;147;864797;-61
2022/01/08 06:09:48;;;;;;;21.58;11.24;;;;;;;;;;357608;147;864883;-61
2022/01/08 06:10:50;;;;;;;21.19;10.61;;;;;;;;;;360688;147;865672;-61
2022/01/08 06:11:52;;;;;;;27.34;12.03;;;;;;;;;;355257;150;859533;-61
2022/01/08 06:12:53;;;;;;;26.04;11.91;;;;;;;;;;355674;148;865410;-61
2022/01/08 06:13:55;;;;;;;22.29;11.24;;;;;;;;;;356825;147;865479;-60
2022/01/08 06:14:56;;;;;;;23.89;12.26;;;;;;;;;;357201;147;864824;-62
2022/01/08 06:15:58;;;;;;;23.19;11.67;;;;;;;;;;355552;148;864885;-60